sensor_id;sensor_type;location;lat;lon;timestamp;pressure;altitude;pressure_sealevel;temperature;humidity
56894;BME280;43392;50.078;13.704;2022-11-15T00:00:03;97087.91;;;5.16;100.00
56894;BME280;43392;50.078;13.704;2022-11-15T00:02:30;97087.66;;;5.17;100.00
56894;BME280;43392;50.078;13.704;2022-11-15T00:04:58;97086.59;;;5.18;100.00
56894;BME280;43392;50.078;13.704;2022-11-15T00:07:25;97081.69;;;5.10;100.00
56894;BME280;43392;50.078;13.704;2022-11-15T00:09:51;97083.19;;;5.06;100.00
56894;BME280;43392;50.078;13.704;2022-11-15T00:12:18;97080.06;;;5.09;100.00
56894;BME280;43392;50.078;13.704;2022-11-15T00:14:44;97084.66;;;5.14;100.00
56894;BME280;43392;50.078;13.704;2022-11-15T00:17:11;97083.38;;;5.16;100.00
56894;BME280;43392;50.078;13.704;2022-11-15T00:19:38;97078.06;;;5.16;100.00
56894;BME280;43392;50.078;13.704;2022-11-15T00:22:05;97081.22;;;5.13;100.00
56894;BME280;43392;50.078;13.704;2022-11-15T00:24:32;97083.88;;;5.13;100.00
56894;BME280;43392;50.078;13.704;2022-11-15T00:26:59;97084.44;;;5.15;100.00
56894;BME280;43392;50.078;13.704;2022-11-15T00:29:25;97087.66;;;5.17;100.00
56894;BME280;43392;50.078;13.704;2022-11-15T00:31:52;97081.88;;;5.20;100.00
56894;BME280;43392;50.078;13.704;2022-11-15T00:34:18;97073.66;;;5.22;100.00
56894;BME280;43392;50.078;13.704;2022-11-15T00:36:45;97071.81;;;5.22;100.00
56894;BME280;43392;50.078;13.704;2022-11-15T00:39:13;97077.13;;;5.22;100.00
56894;BME280;43392;50.078;13.704;2022-11-15T00:41:39;97077.94;;;5.23;100.00
56894;BME280;43392;50.078;13.704;2022-11-15T00:44:06;97069.63;;;5.19;100.00
56894;BME280;43392;50.078;13.704;2022-11-15T00:46:33;97058.88;;;5.14;100.00
56894;BME280;43392;50.078;13.704;2022-11-15T00:48:59;97063.63;;;5.12;100.00
56894;BME280;43392;50.078;13.704;2022-11-15T00:51:26;97059.34;;;5.11;100.00
56894;BME280;43392;50.078;13.704;2022-11-15T00:53:52;97073.72;;;5.10;100.00
56894;BME280;43392;50.078;13.704;2022-11-15T00:56:20;97072.09;;;5.09;100.00
56894;BME280;43392;50.078;13.704;2022-11-15T00:58:47;97070.47;;;5.08;100.00
56894;BME280;43392;50.078;13.704;2022-11-15T01:01:14;97059.25;;;5.06;100.00
56894;BME280;43392;50.078;13.704;2022-11-15T01:03:41;97073.59;;;5.05;100.00
56894;BME280;43392;50.078;13.704;2022-11-15T01:06:08;97065.06;;;5.03;100.00
56894;BME280;43392;50.078;13.704;2022-11-15T01:08:35;97067.84;;;4.97;100.00
56894;BME280;43392;50.078;13.704;2022-11-15T01:11:02;97057.13;;;4.92;100.00
56894;BME280;43392;50.078;13.704;2022-11-15T01:13:32;97045.84;;;4.85;100.00
56894;BME280;43392;50.078;13.704;2022-11-15T01:15:59;97050.81;;;4.81;100.00
56894;BME280;43392;50.078;13.704;2022-11-15T01:18:26;97039.06;;;4.77;100.00
56894;BME280;43392;50.078;13.704;2022-11-15T01:20:52;97037.69;;;4.75;100.00
56894;BME280;43392;50.078;13.704;2022-11-15T01:23:19;97049.34;;;4.74;100.00
56894;BME280;43392;50.078;13.704;2022-11-15T01:25:45;97037.09;;;4.72;100.00
56894;BME280;43392;50.078;13.704;2022-11-15T01:28:12;97041.28;;;4.68;100.00
56894;BME280;43392;50.078;13.704;2022-11-15T01:30:40;97048.69;;;4.66;100.00
56894;BME280;43392;50.078;13.704;2022-11-15T01:33:06;97049.59;;;4.60;100.00
56894;BME280;43392;50.078;13.704;2022-11-15T01:35:33;97041.53;;;4.55;100.00
56894;BME280;43392;50.078;13.704;2022-11-15T01:38:04;97038.56;;;4.52;100.00
56894;BME280;43392;50.078;13.704;2022-11-15T01:40:31;97035.56;;;4.48;100.00
56894;BME280;43392;50.078;13.704;2022-11-15T01:42:57;97026.22;;;4.46;100.00
56894;BME280;43392;50.078;13.704;2022-11-15T01:45:24;97035.22;;;4.45;100.00
56894;BME280;43392;50.078;13.704;2022-11-15T01:47:53;97035.69;;;4.42;100.00
56894;BME280;43392;50.078;13.704;2022-11-15T01:50:24;97033.50;;;4.39;100.00
56894;BME280;43392;50.078;13.704;2022-11-15T01:52:53;97027.41;;;4.38;100.00
56894;BME280;43392;50.078;13.704;2022-11-15T01:55:22;97025.78;;;4.37;100.00
56894;BME280;43392;50.078;13.704;2022-11-15T01:57:53;97025.22;;;4.35;100.00
56894;BME280;43392;50.078;13.704;2022-11-15T02:00:21;97023.00;;;4.32;100.00
56894;BME280;43392;50.078;13.704;2022-11-15T02:02:47;97025.09;;;4.30;100.00
56894;BME280;43392;50.078;13.704;2022-11-15T02:05:15;97026.94;;;4.30;100.00
56894;BME280;43392;50.078;13.704;2022-11-15T02:07:42;97029.03;;;4.28;100.00
56894;BME280;43392;50.078;13.704;2022-11-15T02:10:11;97027.97;;;4.29;100.00
56894;BME280;43392;50.078;13.704;2022-11-15T02:12:38;97013.09;;;4.28;100.00
56894;BME280;43392;50.078;13.704;2022-11-15T02:15:06;97021.06;;;4.28;100.00
56894;BME280;43392;50.078;13.704;2022-11-15T02:17:50;97026.84;;;4.25;99.89
56894;BME280;43392;50.078;13.704;2022-11-15T02:20:43;97019.69;;;4.25;99.84
56894;BME280;43392;50.078;13.704;2022-11-15T02:23:40;97011.72;;;4.25;100.00
56894;BME280;43392;50.078;13.704;2022-11-15T02:26:50;97004.00;;;4.24;100.00
56894;BME280;43392;50.078;13.704;2022-11-15T02:29:35;97020.97;;;4.23;100.00
56894;BME280;43392;50.078;13.704;2022-11-15T02:32:13;97012.19;;;4.22;100.00
56894;BME280;43392;50.078;13.704;2022-11-15T02:34:50;97003.41;;;4.22;99.98
56894;BME280;43392;50.078;13.704;2022-11-15T02:37:23;97005.50;;;4.20;100.00
56894;BME280;43392;50.078;13.704;2022-11-15T02:39:59;97005.50;;;4.20;100.00
56894;BME280;43392;50.078;13.704;2022-11-15T02:42:32;97005.28;;;4.21;100.00
56894;BME280;43392;50.078;13.704;2022-11-15T02:45:20;97002.28;;;4.18;99.76
56894;BME280;43392;50.078;13.704;2022-11-15T02:47:51;96995.84;;;4.14;100.00
56894;BME280;43392;50.078;13.704;2022-11-15T02:50:24;97000.09;;;4.15;100.00
56894;BME280;43392;50.078;13.704;2022-11-15T02:52:51;97001.47;;;4.17;100.00
56894;BME280;43392;50.078;13.704;2022-11-15T02:55:29;96998.59;;;4.19;100.00
56894;BME280;43392;50.078;13.704;2022-11-15T02:58:10;96994.88;;;4.20;100.00
56894;BME280;43392;50.078;13.704;2022-11-15T03:00:48;96989.09;;;4.23;100.00
56894;BME280;43392;50.078;13.704;2022-11-15T03:03:32;96988.44;;;4.16;100.00
56894;BME280;43392;50.078;13.704;2022-11-15T03:06:10;96982.31;;;4.15;100.00
56894;BME280;43392;50.078;13.704;2022-11-15T03:08:46;96969.63;;;4.17;100.00
56894;BME280;43392;50.078;13.704;2022-11-15T03:11:19;96983.69;;;4.18;100.00
56894;BME280;43392;50.078;13.704;2022-11-15T03:13:50;96983.59;;;4.13;100.00
56894;BME280;43392;50.078;13.704;2022-11-15T03:16:24;96983.28;;;4.09;100.00
56894;BME280;43392;50.078;13.704;2022-11-15T03:18:57;96973.69;;;4.08;100.00
56894;BME280;43392;50.078;13.704;2022-11-15T03:21:25;96977.28;;;4.02;100.00
56894;BME280;43392;50.078;13.704;2022-11-15T03:23:56;96979.22;;;3.95;100.00
56894;BME280;43392;50.078;13.704;2022-11-15T03:26:25;96980.50;;;3.92;100.00
56894;BME280;43392;50.078;13.704;2022-11-15T03:28:56;96980.31;;;3.82;99.91
56894;BME280;43392;50.078;13.704;2022-11-15T03:31:27;96980.66;;;3.74;100.00
56894;BME280;43392;50.078;13.704;2022-11-15T03:34:20;96969.69;;;3.71;100.00
56894;BME280;43392;50.078;13.704;2022-11-15T03:36:50;96980.41;;;3.64;100.00
56894;BME280;43392;50.078;13.704;2022-11-15T03:39:18;96966.91;;;3.54;100.00
56894;BME280;43392;50.078;13.704;2022-11-15T03:41:48;96978.47;;;3.60;100.00
56894;BME280;43392;50.078;13.704;2022-11-15T03:44:22;96975.44;;;3.56;100.00
56894;BME280;43392;50.078;13.704;2022-11-15T03:46:57;96979.47;;;3.59;100.00
56894;BME280;43392;50.078;13.704;2022-11-15T03:49:28;96976.72;;;3.65;100.00
56894;BME280;43392;50.078;13.704;2022-11-15T03:51:56;96976.59;;;3.72;100.00
56894;BME280;43392;50.078;13.704;2022-11-15T03:54:23;96972.81;;;3.79;100.00
56894;BME280;43392;50.078;13.704;2022-11-15T03:56:50;96967.81;;;3.83;100.00
56894;BME280;43392;50.078;13.704;2022-11-15T03:59:16;96970.84;;;3.86;100.00
56894;BME280;43392;50.078;13.704;2022-11-15T04:01:43;96968.63;;;3.83;100.00
56894;BME280;43392;50.078;13.704;2022-11-15T04:04:09;96966.56;;;3.85;100.00
56894;BME280;43392;50.078;13.704;2022-11-15T04:06:37;96973.47;;;3.86;100.00
56894;BME280;43392;50.078;13.704;2022-11-15T04:09:04;96962.88;;;3.86;100.00
56894;BME280;43392;50.078;13.704;2022-11-15T04:11:31;96959.75;;;3.78;100.00
56894;BME280;43392;50.078;13.704;2022-11-15T04:13:57;96961.63;;;3.77;100.00
56894;BME280;43392;50.078;13.704;2022-11-15T04:16:24;96967.38;;;3.74;100.00
56894;BME280;43392;50.078;13.704;2022-11-15T04:18:50;96963.91;;;3.74;100.00
56894;BME280;43392;50.078;13.704;2022-11-15T04:21:31;96964.72;;;3.74;100.00
56894;BME280;43392;50.078;13.704;2022-11-15T04:24:16;96961.72;;;3.82;100.00
56894;BME280;43392;50.078;13.704;2022-11-15T04:26:43;96962.88;;;3.86;100.00
56894;BME280;43392;50.078;13.704;2022-11-15T04:29:09;96962.16;;;3.91;100.00
56894;BME280;43392;50.078;13.704;2022-11-15T04:31:54;96960.91;;;3.93;100.00
56894;BME280;43392;50.078;13.704;2022-11-15T04:34:20;96954.56;;;3.94;100.00
56894;BME280;43392;50.078;13.704;2022-11-15T04:36:47;96951.91;;;3.94;100.00
56894;BME280;43392;50.078;13.704;2022-11-15T04:39:32;96940.94;;;3.91;100.00
56894;BME280;43392;50.078;13.704;2022-11-15T04:41:59;96944.66;;;3.90;100.00
56894;BME280;43392;50.078;13.704;2022-11-15T04:44:25;96937.16;;;3.87;100.00
56894;BME280;43392;50.078;13.704;2022-11-15T04:46:52;96931.84;;;3.87;100.00
56894;BME280;43392;50.078;13.704;2022-11-15T04:49:18;96937.38;;;3.85;100.00
56894;BME280;43392;50.078;13.704;2022-11-15T04:51:45;96928.28;;;3.81;99.81
56894;BME280;43392;50.078;13.704;2022-11-15T04:54:12;96936.94;;;3.77;99.89
56894;BME280;43392;50.078;13.704;2022-11-15T04:56:40;96939.84;;;3.75;99.85
56894;BME280;43392;50.078;13.704;2022-11-15T04:59:07;96930.25;;;3.74;99.84
56894;BME280;43392;50.078;13.704;2022-11-15T05:01:33;96925.09;;;3.68;99.23
56894;BME280;43392;50.078;13.704;2022-11-15T05:04:00;96927.63;;;3.63;99.48
56894;BME280;43392;50.078;13.704;2022-11-15T05:06:46;96934.28;;;3.54;99.67
56894;BME280;43392;50.078;13.704;2022-11-15T05:09:13;96938.69;;;3.48;99.44
56894;BME280;43392;50.078;13.704;2022-11-15T05:11:41;96931.56;;;3.49;99.97
56894;BME280;43392;50.078;13.704;2022-11-15T05:14:08;96936.03;;;3.48;99.93
56894;BME280;43392;50.078;13.704;2022-11-15T05:16:34;96928.66;;;3.50;100.00
56894;BME280;43392;50.078;13.704;2022-11-15T05:19:01;96923.59;;;3.49;100.00
56894;BME280;43392;50.078;13.704;2022-11-15T05:21:28;96923.81;;;3.47;100.00
56894;BME280;43392;50.078;13.704;2022-11-15T05:23:54;96921.75;;;3.49;100.00
56894;BME280;43392;50.078;13.704;2022-11-15T05:26:21;96921.53;;;3.51;100.00
56894;BME280;43392;50.078;13.704;2022-11-15T05:28:53;96914.13;;;3.53;100.00
56894;BME280;43392;50.078;13.704;2022-11-15T05:31:20;96912.63;;;3.57;100.00
56894;BME280;43392;50.078;13.704;2022-11-15T05:33:48;96916.66;;;3.59;100.00
56894;BME280;43392;50.078;13.704;2022-11-15T05:36:17;96917.03;;;3.63;100.00
56894;BME280;43392;50.078;13.704;2022-11-15T05:38:46;96917.03;;;3.51;99.70
56894;BME280;43392;50.078;13.704;2022-11-15T05:41:14;96911.72;;;3.51;100.00
56894;BME280;43392;50.078;13.704;2022-11-15T05:43:42;96913.91;;;3.54;100.00
56894;BME280;43392;50.078;13.704;2022-11-15T05:46:12;96912.41;;;3.58;100.00
56894;BME280;43392;50.078;13.704;2022-11-15T05:48:41;96916.09;;;3.57;100.00
56894;BME280;43392;50.078;13.704;2022-11-15T05:51:09;96912.41;;;3.58;100.00
56894;BME280;43392;50.078;13.704;2022-11-15T05:53:37;96914.38;;;3.63;100.00
56894;BME280;43392;50.078;13.704;2022-11-15T05:56:04;96909.28;;;3.61;100.00
56894;BME280;43392;50.078;13.704;2022-11-15T05:58:32;96914.38;;;3.63;100.00
56894;BME280;43392;50.078;13.704;2022-11-15T06:00:59;96919.88;;;3.61;100.00
56894;BME280;43392;50.078;13.704;2022-11-15T06:03:27;96915.63;;;3.60;100.00
56894;BME280;43392;50.078;13.704;2022-11-15T06:05:54;96899.94;;;3.59;100.00
56894;BME280;43392;50.078;13.704;2022-11-15T06:08:21;96912.88;;;3.55;100.00
56894;BME280;43392;50.078;13.704;2022-11-15T06:10:47;96919.19;;;3.54;100.00
56894;BME280;43392;50.078;13.704;2022-11-15T06:13:14;96921.84;;;3.54;100.00
56894;BME280;43392;50.078;13.704;2022-11-15T06:15:41;96914.13;;;3.53;100.00
56894;BME280;43392;50.078;13.704;2022-11-15T06:18:07;96911.25;;;3.54;100.00
56894;BME280;43392;50.078;13.704;2022-11-15T06:20:35;96909.09;;;3.51;100.00
56894;BME280;43392;50.078;13.704;2022-11-15T06:23:03;96900.22;;;3.46;100.00
56894;BME280;43392;50.078;13.704;2022-11-15T06:25:30;96913.91;;;3.43;100.00
56894;BME280;43392;50.078;13.704;2022-11-15T06:27:58;96906.19;;;3.41;99.96
56894;BME280;43392;50.078;13.704;2022-11-15T06:30:26;96909.06;;;3.40;99.62
56894;BME280;43392;50.078;13.704;2022-11-15T06:32:58;96911.38;;;3.36;99.47
56894;BME280;43392;50.078;13.704;2022-11-15T06:35:25;96911.84;;;3.33;99.50
56894;BME280;43392;50.078;13.704;2022-11-15T06:37:54;96910.81;;;3.34;99.54
56894;BME280;43392;50.078;13.704;2022-11-15T06:40:20;96910.00;;;3.33;99.61
56894;BME280;43392;50.078;13.704;2022-11-15T06:42:47;96905.72;;;3.32;99.45
56894;BME280;43392;50.078;13.704;2022-11-15T06:45:13;96909.19;;;3.33;99.72
56894;BME280;43392;50.078;13.704;2022-11-15T06:47:44;96921.41;;;3.34;99.79
56894;BME280;43392;50.078;13.704;2022-11-15T06:50:11;96916.91;;;3.34;99.81
56894;BME280;43392;50.078;13.704;2022-11-15T06:52:38;96917.72;;;3.35;99.77
56894;BME280;43392;50.078;13.704;2022-11-15T06:55:07;96913.78;;;3.38;99.60
56894;BME280;43392;50.078;13.704;2022-11-15T06:57:34;96917.25;;;3.38;99.48
56894;BME280;43392;50.078;13.704;2022-11-15T07:00:01;96920.47;;;3.40;99.33
56894;BME280;43392;50.078;13.704;2022-11-15T07:02:28;96925.78;;;3.40;99.42
56894;BME280;43392;50.078;13.704;2022-11-15T07:04:55;96931.91;;;3.41;99.39
56894;BME280;43392;50.078;13.704;2022-11-15T07:07:21;96926.34;;;3.42;99.56
56894;BME280;43392;50.078;13.704;2022-11-15T07:09:48;96934.53;;;3.41;99.38
56894;BME280;43392;50.078;13.704;2022-11-15T07:12:16;96932.47;;;3.43;99.74
56894;BME280;43392;50.078;13.704;2022-11-15T07:14:42;96943.44;;;3.46;99.80
56894;BME280;43392;50.078;13.704;2022-11-15T07:17:09;96938.69;;;3.48;99.94
56894;BME280;43392;50.078;13.704;2022-11-15T07:19:36;96937.44;;;3.51;99.97
56894;BME280;43392;50.078;13.704;2022-11-15T07:22:02;96944.56;;;3.50;99.65
56894;BME280;43392;50.078;13.704;2022-11-15T07:24:29;96945.47;;;3.44;99.38
56894;BME280;43392;50.078;13.704;2022-11-15T07:26:55;96936.38;;;3.40;99.53
56894;BME280;43392;50.078;13.704;2022-11-15T07:29:23;96942.03;;;3.44;99.81
56894;BME280;43392;50.078;13.704;2022-11-15T07:31:50;96933.84;;;3.45;99.90
56894;BME280;43392;50.078;13.704;2022-11-15T07:34:16;96935.13;;;3.43;99.54
56894;BME280;43392;50.078;13.704;2022-11-15T07:36:43;96941.56;;;3.35;99.35
56894;BME280;43392;50.078;13.704;2022-11-15T07:39:10;96928.56;;;3.33;99.57
56894;BME280;43392;50.078;13.704;2022-11-15T07:41:37;96940.88;;;3.40;100.00
56894;BME280;43392;50.078;13.704;2022-11-15T07:44:04;96932.34;;;3.49;100.00
56894;BME280;43392;50.078;13.704;2022-11-15T07:46:32;96933.16;;;3.50;99.68
56894;BME280;43392;50.078;13.704;2022-11-15T07:48:59;96931.06;;;3.52;99.90
56894;BME280;43392;50.078;13.704;2022-11-15T07:51:25;96934.09;;;3.55;100.00
56894;BME280;43392;50.078;13.704;2022-11-15T07:53:52;96932.56;;;3.59;100.00
56894;BME280;43392;50.078;13.704;2022-11-15T07:56:19;96935.22;;;3.59;99.55
56894;BME280;43392;50.078;13.704;2022-11-15T07:58:46;96925.19;;;3.50;99.26
56894;BME280;43392;50.078;13.704;2022-11-15T08:01:13;96924.97;;;3.40;99.23
56894;BME280;43392;50.078;13.704;2022-11-15T08:03:41;96926.22;;;3.37;99.48
56894;BME280;43392;50.078;13.704;2022-11-15T08:06:07;96917.25;;;3.38;99.99
56894;BME280;43392;50.078;13.704;2022-11-15T08:08:34;96922.09;;;3.41;99.79
56894;BME280;43392;50.078;13.704;2022-11-15T08:11:01;96918.06;;;3.27;99.66
56894;BME280;43392;50.078;13.704;2022-11-15T08:13:28;96917.13;;;3.33;99.96
56894;BME280;43392;50.078;13.704;2022-11-15T08:15:58;96922.19;;;3.34;99.81
56894;BME280;43392;50.078;13.704;2022-11-15T08:18:24;96923.38;;;3.39;99.85
56894;BME280;43392;50.078;13.704;2022-11-15T08:20:52;96921.28;;;3.41;99.92
56894;BME280;43392;50.078;13.704;2022-11-15T08:23:19;96927.41;;;3.41;100.00
56894;BME280;43392;50.078;13.704;2022-11-15T08:25:45;96923.69;;;3.42;99.92
56894;BME280;43392;50.078;13.704;2022-11-15T08:28:12;96929.50;;;3.39;99.61
56894;BME280;43392;50.078;13.704;2022-11-15T08:30:40;96925.91;;;3.45;100.00
56894;BME280;43392;50.078;13.704;2022-11-15T08:33:10;96928.53;;;3.45;99.76
56894;BME280;43392;50.078;13.704;2022-11-15T08:35:37;96923.13;;;3.40;99.50
56894;BME280;43392;50.078;13.704;2022-11-15T08:38:05;96926.47;;;3.35;99.53
56894;BME280;43392;50.078;13.704;2022-11-15T08:40:32;96923.38;;;3.27;99.62
56894;BME280;43392;50.078;13.704;2022-11-15T08:42:59;96916.44;;;3.14;99.93
56894;BME280;43392;50.078;13.704;2022-11-15T08:45:27;96910.22;;;3.09;100.00
56894;BME280;43392;50.078;13.704;2022-11-15T08:47:54;96893.88;;;3.12;99.98
56894;BME280;43392;50.078;13.704;2022-11-15T08:50:21;96905.03;;;3.25;100.00
56894;BME280;43392;50.078;13.704;2022-11-15T08:52:48;96899.97;;;3.24;99.82
56894;BME280;43392;50.078;13.704;2022-11-15T08:55:16;96901.00;;;3.23;99.80
56894;BME280;43392;50.078;13.704;2022-11-15T08:57:42;96905.28;;;3.24;99.70
56894;BME280;43392;50.078;13.704;2022-11-15T09:00:10;96904.34;;;3.30;99.80
56894;BME280;43392;50.078;13.704;2022-11-15T09:02:37;96902.97;;;3.39;99.77
56894;BME280;43392;50.078;13.704;2022-11-15T09:05:05;96907.78;;;3.42;99.85
56894;BME280;43392;50.078;13.704;2022-11-15T09:07:32;96895.94;;;3.45;99.78
56894;BME280;43392;50.078;13.704;2022-11-15T09:09:58;96897.09;;;3.49;99.54
56894;BME280;43392;50.078;13.704;2022-11-15T09:12:26;96905.63;;;3.51;99.43
56894;BME280;43392;50.078;13.704;2022-11-15T09:14:53;96896.75;;;3.45;99.35
56894;BME280;43392;50.078;13.704;2022-11-15T09:17:20;96898.25;;;3.41;99.56
56894;BME280;43392;50.078;13.704;2022-11-15T09:19:46;96906.53;;;3.45;99.67
56894;BME280;43392;50.078;13.704;2022-11-15T09:22:13;96901.03;;;3.46;99.41
56894;BME280;43392;50.078;13.704;2022-11-15T09:24:40;96899.38;;;3.45;99.17
56894;BME280;43392;50.078;13.704;2022-11-15T09:27:06;96897.66;;;3.51;99.36
56894;BME280;43392;50.078;13.704;2022-11-15T09:29:34;96901.13;;;3.51;99.43
56894;BME280;43392;50.078;13.704;2022-11-15T09:32:01;96905.06;;;3.49;99.80
56894;BME280;43392;50.078;13.704;2022-11-15T09:34:28;96900.66;;;3.54;100.00
56894;BME280;43392;50.078;13.704;2022-11-15T09:36:54;96907.13;;;3.58;99.85
56894;BME280;43392;50.078;13.704;2022-11-15T09:39:21;96916.44;;;3.61;100.00
56894;BME280;43392;50.078;13.704;2022-11-15T09:41:58;96900.97;;;3.69;100.00
56894;BME280;43392;50.078;13.704;2022-11-15T09:44:37;96899.47;;;3.73;100.00
56894;BME280;43392;50.078;13.704;2022-11-15T09:47:28;96886.00;;;3.75;100.00
56894;BME280;43392;50.078;13.704;2022-11-15T09:50:01;96902.91;;;3.85;99.63
56894;BME280;43392;50.078;13.704;2022-11-15T09:52:35;96892.88;;;3.87;99.47
56894;BME280;43392;50.078;13.704;2022-11-15T09:55:05;96897.13;;;3.88;99.16
56894;BME280;43392;50.078;13.704;2022-11-15T09:57:38;96889.41;;;3.87;99.55
56894;BME280;43392;50.078;13.704;2022-11-15T10:00:13;96883.97;;;3.93;99.59
56894;BME280;43392;50.078;13.704;2022-11-15T10:02:51;96873.81;;;4.02;100.00
56894;BME280;43392;50.078;13.704;2022-11-15T10:05:23;96877.13;;;4.09;99.70
56894;BME280;43392;50.078;13.704;2022-11-15T10:07:57;96872.94;;;4.13;99.65
56894;BME280;43392;50.078;13.704;2022-11-15T10:10:32;96874.31;;;4.16;99.44
56894;BME280;43392;50.078;13.704;2022-11-15T10:13:03;96862.44;;;4.18;99.67
56894;BME280;43392;50.078;13.704;2022-11-15T10:15:31;96868.66;;;4.24;99.83
56894;BME280;43392;50.078;13.704;2022-11-15T10:18:08;96859.97;;;4.28;99.90
56894;BME280;43392;50.078;13.704;2022-11-15T10:20:44;96856.34;;;4.34;99.77
56894;BME280;43392;50.078;13.704;2022-11-15T10:23:14;96855.06;;;4.37;99.64
56894;BME280;43392;50.078;13.704;2022-11-15T10:25:42;96847.91;;;4.37;99.59
56894;BME280;43392;50.078;13.704;2022-11-15T10:28:13;96837.13;;;4.44;99.67
56894;BME280;43392;50.078;13.704;2022-11-15T10:30:44;96830.88;;;4.50;99.91
56894;BME280;43392;50.078;13.704;2022-11-15T10:33:16;96817.13;;;4.53;99.53
56894;BME280;43392;50.078;13.704;2022-11-15T10:35:44;96828.16;;;4.61;99.58
56894;BME280;43392;50.078;13.704;2022-11-15T10:38:11;96823.66;;;4.62;99.67
56894;BME280;43392;50.078;13.704;2022-11-15T10:40:39;96825.34;;;4.68;99.87
56894;BME280;43392;50.078;13.704;2022-11-15T10:43:15;96817.16;;;4.69;99.90
56894;BME280;43392;50.078;13.704;2022-11-15T10:45:44;96810.78;;;4.70;100.00
56894;BME280;43392;50.078;13.704;2022-11-15T10:48:22;96806.81;;;4.73;100.00
56894;BME280;43392;50.078;13.704;2022-11-15T10:50:50;96810.94;;;4.81;100.00
56894;BME280;43392;50.078;13.704;2022-11-15T10:53:23;96806.25;;;4.88;99.96
56894;BME280;43392;50.078;13.704;2022-11-15T10:55:52;96812.13;;;4.90;100.00
56894;BME280;43392;50.078;13.704;2022-11-15T10:58:22;96808.69;;;4.89;99.89
56894;BME280;43392;50.078;13.704;2022-11-15T11:00:54;96801.50;;;4.90;100.00
56894;BME280;43392;50.078;13.704;2022-11-15T11:03:29;96796.44;;;4.88;99.76
56894;BME280;43392;50.078;13.704;2022-11-15T11:06:14;96791.13;;;4.88;100.00
56894;BME280;43392;50.078;13.704;2022-11-15T11:08:54;96795.41;;;4.89;100.00
56894;BME280;43392;50.078;13.704;2022-11-15T11:11:20;96792.75;;;4.89;99.72
56894;BME280;43392;50.078;13.704;2022-11-15T11:13:48;96786.28;;;4.85;99.78
56894;BME280;43392;50.078;13.704;2022-11-15T11:16:34;96778.88;;;4.87;100.00
56894;BME280;43392;50.078;13.704;2022-11-15T11:19:19;96770.91;;;4.87;100.00
56894;BME280;43392;50.078;13.704;2022-11-15T11:21:55;96772.06;;;4.91;100.00
56894;BME280;43392;50.078;13.704;2022-11-15T11:24:32;96767.78;;;4.90;100.00
56894;BME280;43392;50.078;13.704;2022-11-15T11:27:13;96769.06;;;4.88;100.00
56894;BME280;43392;50.078;13.704;2022-11-15T11:29:52;96767.78;;;4.90;100.00
56894;BME280;43392;50.078;13.704;2022-11-15T11:32:47;96760.69;;;4.96;100.00
56894;BME280;43392;50.078;13.704;2022-11-15T11:35:20;96756.47;;;5.00;100.00
56894;BME280;43392;50.078;13.704;2022-11-15T11:37:50;96755.94;;;4.98;100.00
56894;BME280;43392;50.078;13.704;2022-11-15T11:40:29;96757.78;;;4.97;100.00
56894;BME280;43392;50.078;13.704;2022-11-15T11:43:02;96754.09;;;4.98;100.00
56894;BME280;43392;50.078;13.704;2022-11-15T11:48:40;96751.97;;;5.00;100.00
56894;BME280;43392;50.078;13.704;2022-11-15T11:51:13;96749.88;;;5.02;100.00
56894;BME280;43392;50.078;13.704;2022-11-15T11:53:47;96747.78;;;5.04;100.00
56894;BME280;43392;50.078;13.704;2022-11-15T11:56:22;96737.22;;;5.09;100.00
56894;BME280;43392;50.078;13.704;2022-11-15T11:58:52;96736.19;;;5.10;100.00
56894;BME280;43392;50.078;13.704;2022-11-15T12:01:23;96729.25;;;5.09;100.00
56894;BME280;43392;50.078;13.704;2022-11-15T12:03:55;96726.84;;;5.08;100.00
56894;BME280;43392;50.078;13.704;2022-11-15T12:06:30;96717.31;;;5.12;100.00
56894;BME280;43392;50.078;13.704;2022-11-15T12:09:01;96714.91;;;5.10;100.00
56894;BME280;43392;50.078;13.704;2022-11-15T12:11:32;96714.38;;;5.08;99.91
56894;BME280;43392;50.078;13.704;2022-11-15T12:14:05;96714.38;;;5.08;100.00
56894;BME280;43392;50.078;13.704;2022-11-15T12:16:42;96704.78;;;5.07;100.00
56894;BME280;43392;50.078;13.704;2022-11-15T12:19:10;96710.56;;;5.04;100.00
56894;BME280;43392;50.078;13.704;2022-11-15T12:21:43;96701.56;;;5.05;100.00
56894;BME280;43392;50.078;13.704;2022-11-15T12:24:14;96697.84;;;5.06;100.00
56894;BME280;43392;50.078;13.704;2022-11-15T12:26:47;96685.34;;;5.07;100.00
56894;BME280;43392;50.078;13.704;2022-11-15T12:29:19;96681.09;;;5.06;100.00
56894;BME280;43392;50.078;13.704;2022-11-15T12:31:50;96677.38;;;5.07;100.00
56894;BME280;43392;50.078;13.704;2022-11-15T12:34:38;96681.41;;;5.09;100.00
56894;BME280;43392;50.078;13.704;2022-11-15T12:40:24;96668.66;;;5.11;100.00
56894;BME280;43392;50.078;13.704;2022-11-15T12:45:46;96669.72;;;5.10;100.00
56894;BME280;43392;50.078;13.704;2022-11-15T12:55:01;96658.78;;;5.07;100.00
56894;BME280;43392;50.078;13.704;2022-11-15T12:57:37;96663.34;;;5.11;100.00
56894;BME280;43392;50.078;13.704;2022-11-15T13:00:36;96657.31;;;5.16;100.00
56894;BME280;43392;50.078;13.704;2022-11-15T13:03:23;96657.53;;;5.14;100.00
56894;BME280;43392;50.078;13.704;2022-11-15T13:08:48;96640.72;;;5.09;100.00
56894;BME280;43392;50.078;13.704;2022-11-15T13:11:53;96639.19;;;5.13;100.00
56894;BME280;43392;50.078;13.704;2022-11-15T13:14:53;96628.31;;;5.14;100.00
56894;BME280;43392;50.078;13.704;2022-11-15T13:17:38;96640.00;;;5.13;100.00
56894;BME280;43392;50.078;13.704;2022-11-15T13:20:21;96641.59;;;5.14;100.00
56894;BME280;43392;50.078;13.704;2022-11-15T13:22:50;96622.44;;;5.12;100.00
56894;BME280;43392;50.078;13.704;2022-11-15T13:25:27;96630.97;;;5.14;100.00
56894;BME280;43392;50.078;13.704;2022-11-15T13:27:58;96629.38;;;5.13;100.00